Brisbane, Australia
Current Conditions -  °F | °C
As of 6:00 AM on Friday 30 Jan 2015 (Local Time) from YBBN Reporting Station
Broken Clouds Broken Clouds  
Wind Chill: 68°   Ceiling: 10000
Heat Index: 68°   Visibility: 6mi
Dew Point: 64°   Wind: 6mph
Humidity: 88%   Direction: 200°SSW
Pressure: 29.8"   Gusts: NA
Location:  27.47°S, 153.03°E
Report Text: YBBN 292000Z 20005KT 9999 FEW018 SCT050 BKN100 20/18 Q1009
Loading
Personal Weather Stations






























Interactive Weather Map New forecast layout! Learn more

10-Day Weather Forecast

Advertisements
Track Severe Weather on mobile